ADDS METAR Data INFO
IDs: Format: Raw Decoded Include TAF

Data at: 0108 UTC 24 Jun 2018

KLVN 240055Z AUTO 00000KT 10SM CLR 25/17 A2977 RMK AO2
KLVN 240035Z AUTO 00000KT 10SM CLR 25/17 A2977 RMK AO2
KLVN 240015Z AUTO 00000KT 10SM CLR 25/17 A2976 RMK AO2
KLVN 232355Z AUTO 19003KT 10SM CLR 26/17 A2976 RMK AO2
KLVN 232335Z AUTO 18003KT 10SM CLR 26/17 A2976 RMK AO2
KLVN 232315Z AUTO 20004KT 10SM CLR 27/16 A2975 RMK AO2
KLVN 232255Z AUTO 20003KT 10SM CLR 27/16 A2975 RMK AO2
KLVN 232235Z AUTO 20005KT 10SM SCT048 27/16 A2976 RMK AO2
KLVN 232215Z AUTO 21004KT 10SM SCT048 27/16 A2976 RMK AO2
KLVN 232155Z AUTO 21004KT 10SM SCT050 28/17 A2976 RMK AO2
KLVN 232135Z AUTO 23003KT 10SM CLR 28/17 A2976 RMK AO2
KLVN 232115Z AUTO 00000KT 10SM CLR 28/16 A2976 RMK AO2
KLVN 232055Z AUTO 00000KT 10SM CLR 27/16 A2976 RMK AO2
KLVN 232035Z AUTO 00000KT 10SM CLR 27/17 A2977 RMK AO2
KLVN 232015Z AUTO 22003KT 10SM CLR 27/17 A2977 RMK AO2
KLVN 231955Z AUTO 00000KT 10SM CLR 27/16 A2977 RMK AO2
KLVN 231935Z AUTO 27005KT 10SM CLR 27/17 A2978 RMK AO2
KLVN 231915Z AUTO 26005KT 10SM CLR 28/17 A2978 RMK AO2
KLVN 231855Z AUTO 26004KT 10SM CLR 27/16 A2978 RMK AO2
KLVN 231835Z AUTO 00000KT 10SM CLR 27/16 A2978 RMK AO2
KLVN 231815Z AUTO 25003KT 10SM CLR 27/16 A2978 RMK AO2
KLVN 231755Z AUTO 26006KT 10SM SCT044 27/17 A2979 RMK AO2
KLVN 231735Z AUTO 25004KT 10SM SCT044 27/17 A2978 RMK AO2
KLVN 231715Z AUTO 23004KT 10SM CLR 27/16 A2979 RMK AO2
KLVN 231655Z AUTO 00000KT 10SM CLR 26/17 A2979 RMK AO2
KLVN 231635Z AUTO 23004KT 10SM CLR 27/17 A2979 RMK AO2
KLVN 231615Z AUTO 25004KT 10SM CLR 26/15 A2979 RMK AO2
KLVN 231555Z AUTO 23004KT 10SM CLR 26/16 A2979 RMK AO2
KLVN 231535Z AUTO 25005KT 10SM CLR 26/17 A2978 RMK AO2
KLVN 231515Z AUTO 24005KT 10SM CLR 26/17 A2978 RMK AO2
KLVN 231455Z AUTO 24005KT 10SM CLR 25/17 A2978 RMK AO2
KLVN 231435Z AUTO 26005KT 10SM CLR 25/17 A2978 RMK AO2
KLVN 231415Z AUTO 25005KT 10SM CLR 24/17 A2979 RMK AO2
KLVN 231355Z AUTO 26003KT 10SM CLR 24/18 A2978 RMK AO2
KLVN 231335Z AUTO 00000KT 10SM CLR 22/19 A2979 RMK AO2
KLVN 231315Z AUTO 00000KT 10SM CLR 21/18 A2978 RMK AO2
KLVN 231255Z AUTO 00000KT 10SM CLR 20/18 A2978 RMK AO2
KLVN 231235Z AUTO 00000KT 10SM CLR 19/19 A2977 RMK AO2
KLVN 231215Z AUTO 00000KT 10SM CLR 18/18 A2977 RMK AO2
KLVN 231155Z AUTO 00000KT 10SM CLR 17/17 A2977 RMK AO2
KLVN 231135Z AUTO 00000KT 7SM CLR 16/ A2977 RMK AO2
KLVN 231115Z AUTO 00000KT 5SM HZ CLR 16/ A2978 RMK AO2
KLVN 231055Z AUTO 00000KT 7SM CLR 16/ A2978 RMK AO2
KLVN 231035Z AUTO 00000KT 5SM HZ CLR 15/ A2978 RMK AO2
KLVN 231015Z AUTO 00000KT 7SM CLR 15/ A2978 RMK AO2
KLVN 230955Z AUTO 00000KT 7SM CLR 16/ A2978 RMK AO2
KLVN 230935Z AUTO 00000KT 5SM HZ CLR 16/ A2979 RMK AO2
KLVN 230915Z AUTO 00000KT 7SM CLR 16/ A2979 RMK AO2
KLVN 230855Z AUTO 00000KT 7SM CLR 16/ A2979 RMK AO2
KLVN 230835Z AUTO 00000KT 10SM CLR 16/ A2980 RMK AO2
KLVN 230815Z AUTO 00000KT 7SM CLR 16/ A2980 RMK AO2
KLVN 230755Z AUTO 00000KT 7SM CLR 17/17 A2981 RMK AO2
KLVN 230735Z AUTO 00000KT 10SM CLR 17/17 A2981 RMK AO2
KLVN 230715Z AUTO 22004KT 10SM CLR 17/17 A2981 RMK AO2
KLVN 230655Z AUTO 00000KT 10SM CLR 17/17 A2981 RMK AO2
KLVN 230635Z AUTO 00000KT 10SM CLR 17/17 A2981 RMK AO2
KLVN 230615Z AUTO 00000KT 10SM CLR 17/17 A2981 RMK AO2
KLVN 230555Z AUTO 00000KT 10SM CLR 17/17 A2981 RMK AO2
KLVN 230535Z AUTO 00000KT 10SM CLR 17/17 A2980 RMK AO2
KLVN 230515Z AUTO 00000KT 10SM CLR 17/17 A2981 RMK AO2
KLVN 230455Z AUTO 00000KT 10SM CLR 18/18 A2980 RMK AO2
KLVN 230435Z AUTO 00000KT 10SM CLR 19/17 A2981 RMK AO2
KLVN 230415Z AUTO 00000KT 10SM CLR 19/17 A2981 RMK AO2
KLVN 230355Z AUTO 00000KT 10SM CLR 18/18 A2981 RMK AO2
KLVN 230335Z AUTO 00000KT 10SM CLR 18/18 A2980 RMK AO2
KLVN 230315Z AUTO 00000KT 10SM CLR 19/18 A2980 RMK AO2
KLVN 230255Z AUTO 00000KT 10SM CLR 19/18 A2979 RMK AO2
KLVN 230235Z AUTO 00000KT 10SM CLR 20/18 A2979 RMK AO2
KLVN 230215Z AUTO 00000KT 10SM CLR 22/17 A2978 RMK AO2
KLVN 230155Z AUTO 00000KT 10SM CLR 22/17 A2978 RMK AO2
KLVN 230135Z AUTO 13003KT 10SM CLR 23/17 A2978 RMK AO2
KLVN 230115Z AUTO 00000KT 10SM CLR 23/17 A2979 RMK AO2
KLVN 230055Z AUTO 11003KT 10SM CLR 24/18 A2980 RMK AO2
KLVN 230035Z AUTO 00000KT 10SM CLR 25/17 A2980 RMK AO2
KLVN 230015Z AUTO 11004KT 10SM CLR 26/16 A2980 RMK AO2
KLVN 222355Z AUTO 00000KT 10SM CLR 26/15 A2981 RMK AO2
KLVN 222335Z AUTO 00000KT 10SM CLR 26/14 A2981 RMK AO2
KLVN 222315Z AUTO 00000KT 10SM CLR 27/14 A2981 RMK AO2
KLVN 222255Z AUTO 09004KT 10SM CLR 27/14 A2981 RMK AO2
KLVN 222235Z AUTO 12005KT 10SM CLR 27/15 A2982 RMK AO2
KLVN 222215Z AUTO 00000KT 10SM CLR 27/14 A2983 RMK AO2
KLVN 222155Z AUTO 08004KT 10SM SCT050 28/15 A2983 RMK AO2
KLVN 222135Z AUTO 00000KT 10SM SCT050 27/16 A2984 RMK AO2 LTG DSNT SW
KLVN 222115Z AUTO 00000KT 10SM CLR 27/16 A2984 RMK AO2
KLVN 222055Z AUTO 16003KT 10SM CLR 27/16 A2984 RMK AO2
KLVN 222035Z AUTO 00000KT 10SM CLR 27/15 A2985 RMK AO2
KLVN 222015Z AUTO 09004KT 10SM CLR 27/16 A2985 RMK AO2
KLVN 221955Z AUTO 11005KT 10SM SCT050 27/16 A2986 RMK AO2
KLVN 221935Z AUTO 13006KT 10SM CLR 27/16 A2987 RMK AO2
KLVN 221915Z AUTO 12003KT 10SM CLR 27/15 A2987 RMK AO2
KLVN 221855Z AUTO 10007KT 10SM CLR 27/16 A2987 RMK AO2
KLVN 221835Z AUTO 08006KT 10SM CLR 26/17 A2987 RMK AO2
KLVN 221815Z AUTO 09003KT 10SM CLR 26/17 A2988 RMK AO2
KLVN 221755Z AUTO 10004KT 10SM CLR 24/17 A2988 RMK AO2
KLVN 221735Z AUTO 10005KT 10SM CLR 24/18 A2988 RMK AO2
KLVN 221715Z AUTO 11009KT 10SM CLR 25/18 A2988 RMK AO2
KLVN 221655Z AUTO 07005KT 10SM CLR 26/19 A2988 RMK AO2
KLVN 221635Z AUTO 04004KT 10SM CLR 24/19 A2989 RMK AO2
KLVN 221615Z AUTO 00000KT 10SM CLR 23/19 A2991 RMK AO2
KLVN 221555Z AUTO 00000KT 10SM CLR 22/18 A2991 RMK AO2
KLVN 221535Z AUTO 09003KT 10SM CLR 22/19 A2991 RMK AO2
KLVN 221515Z AUTO 12004KT 10SM CLR 22/19 A2991 RMK AO2
KLVN 221455Z AUTO 10003KT 10SM CLR 22/18 A2991 RMK AO2
KLVN 221435Z AUTO 00000KT 10SM CLR 22/18 A2991 RMK AO2
KLVN 221415Z AUTO 00000KT 10SM CLR 22/18 A2991 RMK AO2
KLVN 221355Z AUTO 08003KT 10SM CLR 21/18 A2991 RMK AO2
KLVN 221335Z AUTO 03003KT 10SM SCT085 19/18 A2991 RMK AO2
KLVN 221315Z AUTO 00000KT 10SM CLR 18/18 A2991 RMK AO2